createdAt,value
2023-04-18T00:00:32.346Z,71
2023-04-18T00:01:32.336Z,71
2023-04-18T00:02:32.486Z,71
2023-04-18T00:03:32.596Z,71
2023-04-18T00:04:32.390Z,71
2023-04-18T00:05:32.353Z,71
2023-04-18T00:06:32.333Z,71
2023-04-18T00:07:32.350Z,71
2023-04-18T00:08:32.331Z,71
2023-04-18T00:09:32.376Z,71
2023-04-18T00:10:32.311Z,71
2023-04-18T00:11:32.344Z,71
2023-04-18T00:12:32.336Z,71
2023-04-18T00:13:32.352Z,71
2023-04-18T00:14:32.326Z,71
2023-04-18T00:15:32.379Z,71
2023-04-18T00:16:32.352Z,71
2023-04-18T00:17:32.386Z,71
2023-04-18T00:18:32.307Z,71
2023-04-18T00:19:32.339Z,71
2023-04-18T00:20:32.294Z,71
2023-04-18T00:21:32.346Z,72
2023-04-18T00:22:32.328Z,72
2023-04-18T00:23:32.318Z,72
2023-04-18T00:24:32.347Z,72
2023-04-18T00:25:32.373Z,72
2023-04-18T00:26:32.296Z,72
2023-04-18T00:27:32.363Z,72
2023-04-18T00:28:32.318Z,72
2023-04-18T00:29:32.312Z,72
2023-04-18T00:30:32.366Z,72
2023-04-18T00:31:32.367Z,72
2023-04-18T00:32:32.327Z,72
2023-04-18T00:33:32.316Z,72
2023-04-18T00:34:32.293Z,72
2023-04-18T00:35:32.334Z,72
2023-04-18T00:36:32.323Z,72
2023-04-18T00:37:32.314Z,72
2023-04-18T00:38:32.329Z,72
2023-04-18T00:39:32.330Z,72
2023-04-18T00:40:32.297Z,72
2023-04-18T00:41:32.317Z,72
2023-04-18T00:42:32.329Z,72
2023-04-18T00:43:32.348Z,72
2023-04-18T00:44:32.315Z,72
2023-04-18T00:45:32.325Z,72
2023-04-18T00:46:32.380Z,72
2023-04-18T00:47:32.459Z,72
2023-04-18T00:48:32.319Z,72
2023-04-18T00:49:32.345Z,72
2023-04-18T00:50:32.315Z,72
2023-04-18T00:51:32.352Z,72
2023-04-18T00:52:32.325Z,72
2023-04-18T00:53:32.310Z,72
2023-04-18T00:54:32.306Z,72
2023-04-18T00:55:32.335Z,72
2023-04-18T00:56:32.300Z,72
2023-04-18T00:57:32.328Z,72
2023-04-18T00:58:32.307Z,72
2023-04-18T00:59:32.309Z,72
2023-04-18T01:00:32.317Z,72
2023-04-18T01:01:32.357Z,72
2023-04-18T01:02:32.423Z,72
2023-04-18T01:03:32.461Z,72
2023-04-18T01:04:32.483Z,72
2023-04-18T01:05:32.324Z,72
2023-04-18T01:06:32.285Z,73
2023-04-18T01:07:32.350Z,72
2023-04-18T01:08:32.333Z,72
2023-04-18T01:09:32.368Z,72
2023-04-18T01:10:32.308Z,72
2023-04-18T01:11:32.338Z,72
2023-04-18T01:12:32.280Z,72
2023-04-18T01:13:32.310Z,72
2023-04-18T01:14:32.292Z,72
2023-04-18T01:15:32.376Z,72
2023-04-18T01:16:32.324Z,72
2023-04-18T01:17:32.348Z,72
2023-04-18T01:18:32.307Z,72
2023-04-18T01:19:32.339Z,72
2023-04-18T01:20:32.308Z,72
2023-04-18T01:21:32.334Z,72
2023-04-18T01:22:32.335Z,72
2023-04-18T01:23:32.359Z,72
2023-04-18T01:24:32.275Z,72
2023-04-18T01:25:32.307Z,72
2023-04-18T01:26:32.319Z,72
2023-04-18T01:27:32.299Z,72
2023-04-18T01:28:32.344Z,73
2023-04-18T01:29:32.305Z,73
2023-04-18T01:30:32.319Z,73
2023-04-18T01:31:32.316Z,73
2023-04-18T01:32:32.355Z,73
2023-04-18T01:33:32.310Z,73
2023-04-18T01:34:32.322Z,73
2023-04-18T01:35:32.344Z,73
2023-04-18T01:36:32.325Z,73
2023-04-18T01:37:32.315Z,73
2023-04-18T01:38:32.319Z,73
2023-04-18T01:39:32.333Z,73
2023-04-18T01:40:32.449Z,73
2023-04-18T01:41:32.700Z,73
2023-04-18T01:42:32.463Z,73
2023-04-18T01:43:32.483Z,73
2023-04-18T01:44:32.496Z,73
2023-04-18T01:45:32.470Z,73
2023-04-18T01:46:32.513Z,73
2023-04-18T01:47:32.515Z,73
2023-04-18T01:48:32.403Z,73
2023-04-18T01:49:32.418Z,73
2023-04-18T01:50:32.428Z,73
2023-04-18T01:51:32.489Z,73
2023-04-18T01:52:32.484Z,73
2023-04-18T01:53:32.488Z,73
2023-04-18T01:54:32.380Z,73
2023-04-18T01:55:32.437Z,73
2023-04-18T01:56:32.531Z,73
2023-04-18T01:57:32.324Z,73
2023-04-18T01:58:32.337Z,73
2023-04-18T01:59:32.308Z,73
2023-04-18T02:00:32.423Z,73
2023-04-18T02:01:32.401Z,73
2023-04-18T02:02:32.442Z,73
2023-04-18T02:03:32.463Z,73
2023-04-18T02:04:32.326Z,73
2023-04-18T02:05:32.339Z,73
2023-04-18T02:06:32.323Z,73
2023-04-18T02:07:32.284Z,73
2023-04-18T02:08:32.326Z,73
2023-04-18T02:09:32.307Z,73
2023-04-18T02:10:32.300Z,73
2023-04-18T02:11:32.310Z,74
2023-04-18T02:12:32.333Z,73
2023-04-18T02:13:32.317Z,73
2023-04-18T02:14:32.302Z,73
2023-04-18T02:15:32.312Z,73
2023-04-18T02:16:32.401Z,73
2023-04-18T02:17:32.350Z,74
2023-04-18T02:18:32.310Z,74
2023-04-18T02:19:32.307Z,74
2023-04-18T02:20:32.346Z,74
2023-04-18T02:21:32.319Z,74
2023-04-18T02:22:32.292Z,74
2023-04-18T02:23:32.318Z,74
2023-04-18T02:24:32.245Z,74
2023-04-18T02:25:32.354Z,74
2023-04-18T02:26:32.285Z,74
2023-04-18T02:27:32.300Z,74
2023-04-18T02:28:32.360Z,74
2023-04-18T02:29:32.321Z,74
2023-04-18T02:30:32.322Z,74
2023-04-18T02:31:32.381Z,74
2023-04-18T02:32:32.367Z,74
2023-04-18T02:33:32.430Z,74
2023-04-18T02:34:32.296Z,74
2023-04-18T02:35:32.313Z,74
2023-04-18T02:36:32.317Z,74
2023-04-18T02:37:32.325Z,74
2023-04-18T02:38:32.308Z,74
2023-04-18T02:39:32.331Z,74
2023-04-18T02:40:32.314Z,74
2023-04-18T02:41:32.309Z,74
2023-04-18T02:42:32.299Z,74
2023-04-18T02:43:32.279Z,74
2023-04-18T02:44:32.308Z,74
2023-04-18T02:45:32.321Z,75
2023-04-18T02:46:32.330Z,75
2023-04-18T02:47:37.518Z,75
2023-04-18T02:48:32.460Z,75
2023-04-18T02:49:32.350Z,75
2023-04-18T02:50:32.314Z,75
2023-04-18T02:51:32.315Z,75
2023-04-18T02:52:32.327Z,75
2023-04-18T02:53:32.324Z,75
2023-04-18T02:54:32.262Z,75
2023-04-18T02:55:32.310Z,75
2023-04-18T02:56:32.303Z,75
2023-04-18T02:57:32.311Z,75
2023-04-18T02:58:32.308Z,75
2023-04-18T02:59:32.301Z,75
2023-04-18T03:00:32.355Z,75
2023-04-18T03:01:32.337Z,75
2023-04-18T03:02:32.385Z,75
2023-04-18T03:03:32.351Z,75
2023-04-18T03:04:32.384Z,75
2023-04-18T03:05:32.334Z,75
2023-04-18T03:06:32.304Z,75
2023-04-18T03:07:32.284Z,76
2023-04-18T03:08:32.337Z,76
2023-04-18T03:09:32.283Z,76
2023-04-18T03:10:32.298Z,76
2023-04-18T03:11:32.374Z,76
2023-04-18T03:12:32.498Z,76
2023-04-18T03:13:32.456Z,76
2023-04-18T03:14:32.395Z,76
2023-04-18T03:15:32.523Z,76
2023-04-18T03:16:32.325Z,76
2023-04-18T03:17:32.382Z,76
2023-04-18T03:18:32.388Z,77
2023-04-18T03:19:32.330Z,77
2023-04-18T03:20:32.431Z,77
2023-04-18T03:21:32.330Z,77
2023-04-18T03:22:32.283Z,77
2023-04-18T03:23:32.304Z,77
2023-04-18T03:24:32.362Z,77
2023-04-18T03:25:32.430Z,77
2023-04-18T03:26:32.476Z,77
2023-04-18T03:27:32.309Z,77
2023-04-18T03:28:32.304Z,77
2023-04-18T03:29:32.311Z,77
2023-04-18T03:30:32.422Z,77
2023-04-18T03:31:32.452Z,77
2023-04-18T03:32:32.305Z,77
2023-04-18T03:33:32.479Z,77
2023-04-18T03:34:32.306Z,77
2023-04-18T03:35:32.455Z,77
2023-04-18T03:36:32.403Z,77
2023-04-18T03:37:32.341Z,78
2023-04-18T03:38:32.307Z,78
2023-04-18T03:39:32.444Z,78
2023-04-18T03:40:32.346Z,78
2023-04-18T03:41:32.293Z,78
2023-04-18T03:42:32.283Z,78
2023-04-18T03:43:32.306Z,78
2023-04-18T03:44:32.376Z,78
2023-04-18T03:45:32.460Z,78
2023-04-18T03:46:32.537Z,78
2023-04-18T03:47:32.402Z,78
2023-04-18T03:48:32.313Z,78
2023-04-18T03:49:32.477Z,78
2023-04-18T03:50:32.458Z,78
2023-04-18T03:51:32.477Z,78
2023-04-18T03:52:32.293Z,78
2023-04-18T03:53:32.314Z,78
2023-04-18T03:54:32.291Z,78
2023-04-18T03:55:32.328Z,78
2023-04-18T03:56:32.300Z,78
2023-04-18T03:57:32.322Z,78
2023-04-18T03:58:32.260Z,78
2023-04-18T03:59:32.286Z,77
2023-04-18T04:00:32.497Z,77
2023-04-18T04:01:32.354Z,77
2023-04-18T04:02:32.478Z,77
2023-04-18T04:03:32.465Z,77
2023-04-18T04:04:32.356Z,77
2023-04-18T04:05:32.336Z,77
2023-04-18T04:06:32.295Z,77
2023-04-18T04:07:32.296Z,77
2023-04-18T04:08:32.414Z,77
2023-04-18T04:09:32.327Z,77
2023-04-18T04:10:32.324Z,77
2023-04-18T04:11:32.344Z,77
2023-04-18T04:12:32.310Z,77
2023-04-18T04:13:32.311Z,77
2023-04-18T04:14:32.292Z,77
2023-04-18T04:15:32.320Z,77
2023-04-18T04:16:32.362Z,77
2023-04-18T04:17:32.368Z,77
2023-04-18T04:18:32.293Z,77
2023-04-18T04:19:32.319Z,77
2023-04-18T04:20:32.314Z,77
2023-04-18T04:21:32.337Z,77
2023-04-18T04:22:32.304Z,76
2023-04-18T04:23:32.299Z,76
2023-04-18T04:24:32.292Z,76
2023-04-18T04:25:32.294Z,76
2023-04-18T04:26:32.319Z,76
2023-04-18T04:27:32.323Z,76
2023-04-18T04:28:32.291Z,76
2023-04-18T04:29:32.311Z,76
2023-04-18T04:30:32.306Z,76
2023-04-18T04:31:32.374Z,75
2023-04-18T04:32:32.663Z,75
2023-04-18T04:33:32.315Z,75
2023-04-18T04:34:32.267Z,75
2023-04-18T04:35:32.303Z,75
2023-04-18T04:36:32.284Z,75
2023-04-18T04:37:32.284Z,75
2023-04-18T04:38:32.277Z,75
2023-04-18T04:39:32.322Z,75
2023-04-18T04:40:32.391Z,75
2023-04-18T04:41:32.321Z,75
2023-04-18T04:42:32.281Z,74
2023-04-18T04:43:32.378Z,74
2023-04-18T04:44:32.363Z,74
2023-04-18T04:45:32.372Z,74
2023-04-18T04:46:32.292Z,74
2023-04-18T04:47:32.345Z,74
2023-04-18T04:48:32.274Z,74
2023-04-18T04:49:32.301Z,74
2023-04-18T04:50:32.315Z,73
2023-04-18T04:51:32.327Z,73
2023-04-18T04:52:32.298Z,73
2023-04-18T04:53:32.292Z,72
2023-04-18T04:54:32.303Z,72
2023-04-18T04:55:32.339Z,72
2023-04-18T04:56:32.298Z,72
2023-04-18T04:57:32.279Z,72
2023-04-18T04:58:32.291Z,72
2023-04-18T04:59:32.321Z,72
2023-04-18T05:00:32.301Z,71
2023-04-18T05:01:32.347Z,71
2023-04-18T05:02:32.497Z,70
2023-04-18T05:03:32.477Z,70
2023-04-18T05:04:32.409Z,70
2023-04-18T05:05:32.353Z,70
2023-04-18T05:06:32.313Z,69
2023-04-18T05:07:32.354Z,70
2023-04-18T05:08:32.295Z,69
2023-04-18T05:09:32.369Z,69
2023-04-18T05:10:32.294Z,69
2023-04-18T05:11:32.290Z,69
2023-04-18T05:12:32.287Z,68
2023-04-18T05:13:32.323Z,68
2023-04-18T05:14:32.269Z,68
2023-04-18T05:15:32.297Z,68
2023-04-18T05:16:32.319Z,67
2023-04-18T05:17:32.377Z,68
2023-04-18T05:18:34.826Z,68
2023-04-18T05:19:32.285Z,69
2023-04-18T05:20:32.280Z,69
2023-04-18T05:21:32.307Z,69
2023-04-18T05:22:32.294Z,69
2023-04-18T05:23:32.308Z,69
2023-04-18T05:24:32.299Z,69
2023-04-18T05:25:32.322Z,69
2023-04-18T05:26:32.307Z,69
2023-04-18T05:27:32.276Z,69
2023-04-18T05:28:32.349Z,68
2023-04-18T05:29:32.278Z,68
2023-04-18T05:30:32.322Z,68
2023-04-18T05:31:32.407Z,68
2023-04-18T05:32:32.293Z,68
2023-04-18T05:33:32.288Z,68
2023-04-18T05:34:32.307Z,68
2023-04-18T05:35:32.297Z,68
2023-04-18T05:36:32.275Z,68
2023-04-18T05:37:32.285Z,68
2023-04-18T05:38:32.319Z,68
2023-04-18T05:39:32.274Z,67
2023-04-18T05:40:32.323Z,67
2023-04-18T05:41:32.294Z,67
2023-04-18T05:42:32.316Z,66
2023-04-18T05:43:32.273Z,65
2023-04-18T05:44:32.361Z,65
2023-04-18T05:45:32.286Z,65
2023-04-18T05:46:32.369Z,66
2023-04-18T05:47:32.376Z,65
2023-04-18T05:48:32.325Z,65
2023-04-18T05:49:32.290Z,65
2023-04-18T05:50:32.305Z,65
2023-04-18T05:51:32.283Z,64
2023-04-18T05:52:32.302Z,65
2023-04-18T05:53:32.310Z,64
2023-04-18T05:54:32.333Z,64
2023-04-18T05:55:32.287Z,65
2023-04-18T05:56:32.322Z,64
2023-04-18T05:57:32.331Z,64
2023-04-18T05:58:32.328Z,65
2023-04-18T05:59:32.300Z,64
2023-04-18T06:00:32.314Z,65
2023-04-18T06:01:32.303Z,64
2023-04-18T06:02:32.506Z,64
2023-04-18T06:03:32.549Z,64
2023-04-18T06:04:32.466Z,64
2023-04-18T06:05:32.456Z,64
2023-04-18T06:06:32.359Z,64
2023-04-18T06:07:32.304Z,64
2023-04-18T06:08:32.329Z,64
2023-04-18T06:09:32.272Z,63
2023-04-18T06:10:32.309Z,62
2023-04-18T06:11:32.275Z,62
2023-04-18T06:12:32.302Z,63
2023-04-18T06:13:32.262Z,63
2023-04-18T06:14:32.318Z,63
2023-04-18T06:15:32.294Z,63
2023-04-18T06:16:32.363Z,63
2023-04-18T06:17:32.411Z,63
2023-04-18T06:18:32.317Z,63
2023-04-18T06:19:32.293Z,62
2023-04-18T06:20:32.322Z,62
2023-04-18T06:21:32.269Z,62
2023-04-18T06:22:32.337Z,62
2023-04-18T06:23:32.307Z,62
2023-04-18T06:24:32.232Z,62
2023-04-18T06:25:32.418Z,62
2023-04-18T06:26:32.302Z,61
2023-04-18T06:27:32.354Z,61
2023-04-18T06:28:32.281Z,62
2023-04-18T06:29:32.292Z,61
2023-04-18T06:30:32.292Z,62
2023-04-18T06:31:32.369Z,61
2023-04-18T06:32:32.287Z,61
2023-04-18T06:33:32.308Z,60
2023-04-18T06:34:32.279Z,60
2023-04-18T06:35:32.323Z,60
2023-04-18T06:36:32.317Z,60
2023-04-18T06:37:32.305Z,60
2023-04-18T06:38:32.311Z,60
2023-04-18T06:39:32.311Z,60
2023-04-18T06:40:33.199Z,60
2023-04-18T06:41:36.668Z,59
2023-04-18T06:42:40.659Z,59
2023-04-18T06:44:01.616Z,59
2023-04-18T06:44:48.682Z,59
2023-04-18T06:45:52.718Z,58
2023-04-18T06:46:56.715Z,58
2023-04-18T06:48:00.689Z,58
2023-04-18T06:49:04.747Z,58
2023-04-18T06:50:08.627Z,57
2023-04-18T06:51:12.689Z,57
2023-04-18T06:52:16.644Z,58
2023-04-18T06:53:20.669Z,58
2023-04-18T06:54:24.716Z,58
2023-04-18T06:55:28.669Z,57
2023-04-18T06:56:33.477Z,57
2023-04-18T06:57:32.336Z,57
2023-04-18T06:58:32.306Z,57
2023-04-18T06:59:32.282Z,57
2023-04-18T07:00:32.296Z,57
2023-04-18T07:01:32.326Z,56
2023-04-18T07:02:32.417Z,56
2023-04-18T07:03:32.365Z,56
2023-04-18T07:04:32.292Z,56
2023-04-18T07:05:32.268Z,56
2023-04-18T07:06:32.254Z,56
2023-04-18T07:07:32.303Z,56
2023-04-18T07:08:32.293Z,56
2023-04-18T07:09:32.288Z,56
2023-04-18T07:10:32.273Z,55
2023-04-18T07:11:32.293Z,56
2023-04-18T07:12:32.336Z,55
2023-04-18T07:13:32.331Z,56
2023-04-18T07:14:34.121Z,56
2023-04-18T07:15:32.336Z,55
2023-04-18T07:16:32.344Z,55
2023-04-18T07:17:32.313Z,56
2023-04-18T07:18:37.938Z,55
2023-04-18T07:19:32.301Z,54
2023-04-18T07:20:32.256Z,54
2023-04-18T07:21:32.310Z,55
2023-04-18T07:22:32.258Z,55
2023-04-18T07:23:32.287Z,54
2023-04-18T07:24:32.259Z,54
2023-04-18T07:25:32.298Z,54
2023-04-18T07:26:32.248Z,54
2023-04-18T07:27:32.262Z,53
2023-04-18T07:28:32.266Z,53
2023-04-18T07:29:32.282Z,53
2023-04-18T07:30:32.296Z,52
2023-04-18T07:31:32.315Z,52
2023-04-18T07:32:32.282Z,52
2023-04-18T07:33:32.349Z,52
2023-04-18T07:34:32.258Z,51
2023-04-18T07:35:32.294Z,51
2023-04-18T07:36:32.282Z,50
2023-04-18T07:37:32.291Z,50
2023-04-18T07:38:32.292Z,50
2023-04-18T07:39:32.278Z,50
2023-04-18T07:40:32.317Z,50
2023-04-18T07:41:32.323Z,50
2023-04-18T07:42:32.268Z,50
2023-04-18T07:43:32.294Z,49
2023-04-18T07:44:32.237Z,48
2023-04-18T07:45:32.260Z,49
2023-04-18T07:46:32.417Z,49
2023-04-18T07:47:33.030Z,49
2023-04-18T07:48:32.295Z,48
2023-04-18T07:49:32.301Z,48
2023-04-18T07:50:32.292Z,48
2023-04-18T07:51:32.284Z,48
2023-04-18T07:52:32.275Z,48
2023-04-18T07:53:32.356Z,47
2023-04-18T07:54:32.301Z,46
2023-04-18T07:55:32.339Z,46
2023-04-18T07:56:32.239Z,46
2023-04-18T07:57:32.286Z,46
2023-04-18T07:58:32.253Z,46
2023-04-18T07:59:32.299Z,46
2023-04-18T08:00:32.268Z,46
2023-04-18T08:01:32.338Z,45
2023-04-18T08:02:32.401Z,45
2023-04-18T08:03:32.358Z,45
2023-04-18T08:04:32.407Z,45
2023-04-18T08:05:32.630Z,45
2023-04-18T08:06:32.282Z,45
2023-04-18T08:07:32.353Z,44
2023-04-18T08:08:32.274Z,45
2023-04-18T08:09:32.333Z,44
2023-04-18T08:10:32.286Z,44
2023-04-18T08:11:32.287Z,44
2023-04-18T08:12:32.315Z,44
2023-04-18T08:13:32.311Z,44
2023-04-18T08:14:32.265Z,45
2023-04-18T08:15:32.324Z,44
2023-04-18T08:16:32.341Z,43
2023-04-18T08:17:32.307Z,43
2023-04-18T08:18:32.258Z,43
2023-04-18T08:19:32.276Z,43
2023-04-18T08:20:32.267Z,43
2023-04-18T08:21:32.311Z,43
2023-04-18T08:22:32.253Z,43
2023-04-18T08:23:32.426Z,43
2023-04-18T08:24:32.246Z,42
2023-04-18T08:25:32.275Z,42
2023-04-18T08:26:32.282Z,41
2023-04-18T08:27:32.299Z,42
2023-04-18T08:28:32.296Z,41
2023-04-18T08:29:32.267Z,41
2023-04-18T08:30:32.302Z,41
2023-04-18T08:31:32.307Z,42
2023-04-18T08:32:32.351Z,42
2023-04-18T08:33:32.339Z,42
2023-04-18T08:34:32.280Z,42
2023-04-18T08:35:32.325Z,41
2023-04-18T08:36:32.308Z,41
2023-04-18T08:37:32.254Z,41
2023-04-18T08:38:32.274Z,42
2023-04-18T08:39:32.264Z,41
2023-04-18T08:40:32.288Z,41
2023-04-18T08:41:32.270Z,41
2023-04-18T08:42:32.265Z,41
2023-04-18T08:43:32.301Z,41
2023-04-18T08:44:32.312Z,40
2023-04-18T08:45:32.279Z,40
2023-04-18T08:46:32.273Z,40
2023-04-18T08:47:32.372Z,39
2023-04-18T08:48:32.297Z,40
2023-04-18T08:49:32.282Z,41
2023-04-18T08:50:32.637Z,41
2023-04-18T08:51:32.255Z,40
2023-04-18T08:52:32.306Z,40
2023-04-18T08:53:32.250Z,39
2023-04-18T08:54:32.323Z,39
2023-04-18T08:55:32.258Z,39
2023-04-18T08:56:32.263Z,39
2023-04-18T08:57:32.297Z,39
2023-04-18T08:58:32.266Z,39
2023-04-18T08:59:32.282Z,39
2023-04-18T09:00:32.296Z,40
2023-04-18T09:01:32.395Z,39
2023-04-18T09:02:32.364Z,40
2023-04-18T09:03:32.366Z,39
2023-04-18T09:04:32.305Z,39
2023-04-18T09:05:32.251Z,39
2023-04-18T09:06:32.301Z,40
2023-04-18T09:07:32.253Z,39
2023-04-18T09:08:32.285Z,39
2023-04-18T09:09:32.284Z,39
2023-04-18T09:10:32.325Z,40
2023-04-18T09:11:32.303Z,40
2023-04-18T09:12:32.279Z,39
2023-04-18T09:13:32.234Z,38
2023-04-18T09:14:32.286Z,39
2023-04-18T09:15:32.271Z,39
2023-04-18T09:16:32.274Z,39
2023-04-18T09:17:32.326Z,39
2023-04-18T09:18:32.242Z,40
2023-04-18T09:19:32.252Z,39
2023-04-18T09:20:32.316Z,39
2023-04-18T09:21:32.284Z,39
2023-04-18T09:22:32.195Z,39
2023-04-18T09:23:32.274Z,40
2023-04-18T09:24:32.227Z,40
2023-04-18T09:25:32.291Z,39
2023-04-18T09:26:32.345Z,39
2023-04-18T09:27:32.236Z,39
2023-04-18T09:28:32.275Z,39
2023-04-18T09:29:32.258Z,39
2023-04-18T09:30:32.283Z,39
2023-04-18T09:31:32.272Z,39
2023-04-18T09:32:32.302Z,39
2023-04-18T09:33:32.268Z,38
2023-04-18T09:34:32.260Z,38
2023-04-18T09:35:32.305Z,38
2023-04-18T09:36:32.361Z,38
2023-04-18T09:37:32.270Z,38
2023-04-18T09:38:32.249Z,39
2023-04-18T09:39:32.263Z,39
2023-04-18T09:40:32.307Z,39
2023-04-18T09:41:32.334Z,39
2023-04-18T09:42:32.318Z,38
2023-04-18T09:43:32.255Z,38
2023-04-18T09:44:32.282Z,38
2023-04-18T09:45:32.265Z,38
2023-04-18T09:46:32.357Z,38
2023-04-18T09:47:32.306Z,38
2023-04-18T09:48:32.295Z,37
2023-04-18T09:49:32.285Z,38
2023-04-18T09:50:32.273Z,37
2023-04-18T09:51:32.266Z,38
2023-04-18T09:52:32.299Z,38
2023-04-18T09:53:32.261Z,39
2023-04-18T09:54:32.261Z,39
2023-04-18T09:55:32.266Z,39
2023-04-18T09:56:32.320Z,39
2023-04-18T09:57:32.325Z,39
2023-04-18T09:58:32.325Z,39
2023-04-18T09:59:32.262Z,39
2023-04-18T10:00:32.317Z,39
2023-04-18T10:01:32.270Z,39
2023-04-18T10:02:32.356Z,39
2023-04-18T10:03:32.357Z,39
2023-04-18T10:04:32.470Z,39
2023-04-18T10:05:32.350Z,40
2023-04-18T10:06:32.258Z,40
2023-04-18T10:07:32.279Z,40
2023-04-18T10:08:32.287Z,39
2023-04-18T10:09:32.295Z,39
2023-04-18T10:10:32.276Z,39
2023-04-18T10:11:32.329Z,40
2023-04-18T10:12:32.304Z,40
2023-04-18T10:13:32.248Z,40
2023-04-18T10:14:32.248Z,41
2023-04-18T10:15:32.315Z,40
2023-04-18T10:16:34.081Z,40
2023-04-18T10:17:32.298Z,40
2023-04-18T10:18:32.272Z,39
2023-04-18T10:19:32.245Z,39
2023-04-18T10:20:32.301Z,38
2023-04-18T10:21:32.283Z,38
2023-04-18T10:22:32.264Z,38
2023-04-18T10:23:32.285Z,38
2023-04-18T10:24:32.294Z,38
2023-04-18T10:25:32.232Z,38
2023-04-18T10:26:32.283Z,38
2023-04-18T10:27:32.325Z,38
2023-04-18T10:28:32.297Z,38
2023-04-18T10:29:32.242Z,38
2023-04-18T10:30:32.269Z,38
2023-04-18T10:31:32.299Z,38
2023-04-18T10:32:32.287Z,38
2023-04-18T10:33:32.940Z,37
2023-04-18T10:34:32.285Z,37
2023-04-18T10:35:32.309Z,38
2023-04-18T10:36:32.279Z,37
2023-04-18T10:37:32.267Z,37
2023-04-18T10:38:32.317Z,37
2023-04-18T10:39:32.377Z,38
2023-04-18T10:40:32.240Z,37
2023-04-18T10:41:32.278Z,38
2023-04-18T10:42:32.348Z,37
2023-04-18T10:43:32.276Z,37
2023-04-18T10:44:32.328Z,37
2023-04-18T10:45:33.251Z,37
2023-04-18T10:46:33.019Z,38
2023-04-18T10:47:32.514Z,39
2023-04-18T10:48:32.286Z,38
2023-04-18T10:49:32.944Z,39
2023-04-18T10:50:32.248Z,38
2023-04-18T10:51:32.251Z,38
2023-04-18T10:52:32.286Z,37
2023-04-18T10:53:32.252Z,38
2023-04-18T10:54:32.281Z,38
2023-04-18T10:55:32.255Z,38
2023-04-18T10:56:32.339Z,39
2023-04-18T10:57:32.239Z,39
2023-04-18T10:58:32.274Z,39
2023-04-18T10:59:32.275Z,39
2023-04-18T11:00:32.310Z,39
2023-04-18T11:01:33.039Z,39
2023-04-18T11:02:32.516Z,39
2023-04-18T11:03:32.398Z,38
2023-04-18T11:04:32.299Z,38
2023-04-18T11:05:32.249Z,38
2023-04-18T11:06:32.288Z,38
2023-04-18T11:07:32.273Z,37
2023-04-18T11:08:32.287Z,37
2023-04-18T11:09:32.246Z,37
2023-04-18T11:10:32.288Z,36
2023-04-18T11:11:32.281Z,36
2023-04-18T11:12:32.245Z,36
2023-04-18T11:13:32.301Z,36
2023-04-18T11:14:32.265Z,35
2023-04-18T11:15:32.264Z,36
2023-04-18T11:16:32.275Z,36
2023-04-18T11:17:32.320Z,36
2023-04-18T11:18:32.265Z,36
2023-04-18T11:19:32.255Z,36
2023-04-18T11:20:32.325Z,36
2023-04-18T11:21:32.280Z,36
2023-04-18T11:22:32.270Z,36
2023-04-18T11:23:32.267Z,35
2023-04-18T11:24:32.184Z,35
2023-04-18T11:25:32.274Z,36
2023-04-18T11:26:32.274Z,35
2023-04-18T11:27:32.217Z,36
2023-04-18T11:28:32.244Z,34
2023-04-18T11:29:32.228Z,34
2023-04-18T11:30:32.330Z,34
2023-04-18T11:31:32.315Z,34
2023-04-18T11:32:32.322Z,34
2023-04-18T11:33:32.239Z,35
2023-04-18T11:34:32.246Z,35
2023-04-18T11:35:32.237Z,35
2023-04-18T11:36:32.205Z,35
2023-04-18T11:37:32.280Z,35
2023-04-18T11:38:32.360Z,35
2023-04-18T11:39:32.264Z,35
2023-04-18T11:40:32.229Z,35
2023-04-18T11:41:32.282Z,35
2023-04-18T11:42:32.276Z,35
2023-04-18T11:43:32.265Z,34
2023-04-18T11:44:33.152Z,34
2023-04-18T11:45:32.257Z,35
2023-04-18T11:46:32.378Z,35
2023-04-18T11:47:32.234Z,35
2023-04-18T11:48:32.149Z,36
2023-04-18T11:49:32.233Z,36
2023-04-18T11:50:32.262Z,36
2023-04-18T11:51:32.219Z,36
2023-04-18T11:52:32.188Z,37
2023-04-18T11:53:32.254Z,36
2023-04-18T11:54:32.200Z,36
2023-04-18T11:55:32.247Z,35
2023-04-18T11:56:33.498Z,35
2023-04-18T11:57:32.253Z,34
2023-04-18T11:58:32.260Z,35
2023-04-18T11:59:32.300Z,35
2023-04-18T12:00:32.152Z,35
2023-04-18T12:01:32.282Z,35
2023-04-18T12:02:32.329Z,35
2023-04-18T12:03:32.392Z,35
2023-04-18T12:04:32.249Z,35
2023-04-18T12:05:32.551Z,35
2023-04-18T12:06:32.309Z,34
2023-04-18T12:07:32.266Z,34
2023-04-18T12:08:32.148Z,34
2023-04-18T12:09:32.285Z,34
2023-04-18T12:10:32.379Z,35
2023-04-18T12:11:32.272Z,35
2023-04-18T12:12:32.145Z,35
2023-04-18T12:13:32.257Z,35
2023-04-18T12:14:32.226Z,35
2023-04-18T12:15:32.317Z,35
2023-04-18T12:16:32.195Z,35
2023-04-18T12:17:32.371Z,35
2023-04-18T12:18:32.263Z,34
2023-04-18T12:19:32.245Z,34
2023-04-18T12:20:32.114Z,35
2023-04-18T12:21:32.259Z,35
2023-04-18T12:22:32.257Z,34
2023-04-18T12:23:32.280Z,34
2023-04-18T12:24:32.025Z,35
2023-04-18T12:25:32.239Z,34
2023-04-18T12:26:32.249Z,34
2023-04-18T12:27:32.277Z,34
2023-04-18T12:28:32.116Z,34
2023-04-18T12:29:32.219Z,34
2023-04-18T12:30:32.272Z,34
2023-04-18T12:31:32.328Z,34
2023-04-18T12:32:32.205Z,33
2023-04-18T12:33:32.248Z,33
2023-04-18T12:34:32.260Z,34
2023-04-18T12:35:32.293Z,35
2023-04-18T12:36:32.098Z,34
2023-04-18T12:37:32.233Z,34
2023-04-18T12:38:32.260Z,34
2023-04-18T12:39:32.270Z,34
2023-04-18T12:40:32.063Z,34
2023-04-18T12:41:32.259Z,34
2023-04-18T12:42:32.821Z,34
2023-04-18T12:43:32.286Z,34
2023-04-18T12:44:32.219Z,34
2023-04-18T12:45:32.253Z,33
2023-04-18T12:46:32.358Z,34
2023-04-18T12:47:44.175Z,33
2023-04-18T12:48:48.062Z,33
2023-04-18T12:49:52.135Z,34
2023-04-18T12:50:56.064Z,34
2023-04-18T12:52:00.066Z,34
2023-04-18T12:53:04.040Z,34
2023-04-18T12:54:08.080Z,33
2023-04-18T12:55:12.048Z,33
2023-04-18T12:56:16.055Z,34
2023-04-18T12:57:20.074Z,34
2023-04-18T12:58:24.069Z,35
2023-04-18T12:59:28.072Z,35
2023-04-18T13:00:32.135Z,34
2023-04-18T13:01:32.327Z,34
2023-04-18T13:02:32.358Z,34
2023-04-18T13:03:32.405Z,34
2023-04-18T13:04:32.316Z,34
2023-04-18T13:05:34.137Z,34
2023-04-18T13:06:32.262Z,33
2023-04-18T13:07:32.251Z,33
2023-04-18T13:08:32.072Z,33
2023-04-18T13:09:32.275Z,33
2023-04-18T13:10:32.236Z,33
2023-04-18T13:11:32.256Z,33
2023-04-18T13:12:32.052Z,32
2023-04-18T13:13:33.465Z,31
2023-04-18T13:14:32.234Z,32
2023-04-18T13:15:32.269Z,32
2023-04-18T13:16:32.065Z,32
2023-04-18T13:17:32.301Z,32
2023-04-18T13:18:32.231Z,32
2023-04-18T13:19:32.232Z,31
2023-04-18T13:20:32.073Z,31
2023-04-18T13:21:32.262Z,32
2023-04-18T13:22:32.220Z,32
2023-04-18T13:23:32.245Z,32
2023-04-18T13:24:31.970Z,32
2023-04-18T13:25:32.269Z,32
2023-04-18T13:26:32.227Z,31
2023-04-18T13:27:32.239Z,31
2023-04-18T13:28:31.989Z,32
2023-04-18T13:29:32.264Z,32
2023-04-18T13:30:32.241Z,31
2023-04-18T13:31:32.248Z,31
2023-04-18T13:32:32.033Z,31
2023-04-18T13:33:32.328Z,31
2023-04-18T13:34:32.277Z,31
2023-04-18T13:35:32.259Z,32
2023-04-18T13:36:32.002Z,32
2023-04-18T13:37:32.244Z,32
2023-04-18T13:38:32.259Z,31
2023-04-18T13:39:32.259Z,31
2023-04-18T13:40:31.970Z,31
2023-04-18T13:41:32.335Z,31
2023-04-18T13:42:32.267Z,31
2023-04-18T13:43:32.311Z,31
2023-04-18T13:44:31.961Z,31
2023-04-18T13:45:32.247Z,31
2023-04-18T13:46:32.290Z,31
2023-04-18T13:47:32.476Z,31
2023-04-18T13:48:31.944Z,31
2023-04-18T13:49:32.247Z,31
2023-04-18T13:50:32.224Z,32
2023-04-18T13:51:32.244Z,32
2023-04-18T13:52:31.996Z,31
2023-04-18T13:53:32.254Z,32
2023-04-18T13:54:32.251Z,31
2023-04-18T13:55:32.265Z,31
2023-04-18T13:56:31.966Z,31
2023-04-18T13:57:32.405Z,31
2023-04-18T13:58:32.227Z,32
2023-04-18T13:59:32.258Z,32
2023-04-18T14:00:31.914Z,32
2023-04-18T14:01:32.342Z,31
2023-04-18T14:02:32.315Z,31
2023-04-18T14:03:33.142Z,32
2023-04-18T14:04:32.186Z,32
2023-04-18T14:05:32.293Z,32
2023-04-18T14:06:32.221Z,32
2023-04-18T14:07:32.224Z,33
2023-04-18T14:08:31.922Z,32
2023-04-18T14:09:32.263Z,33
2023-04-18T14:10:32.222Z,33
2023-04-18T14:11:32.240Z,33
2023-04-18T14:12:31.990Z,33
2023-04-18T14:13:32.220Z,33
2023-04-18T14:14:32.262Z,33
2023-04-18T14:15:32.268Z,33
2023-04-18T14:16:32.592Z,33
2023-04-18T14:17:32.328Z,33